Naples, FL

7:07 PM EST on March 01, 2015 (GMT -0500)
Southwest Florida International | Change Station
CLOSE
Current Station
Airport
Location: Fort Myers Airport,
Elevation: 30 ft
Nearby Weather Stations

Elev 30 ft 26.54 °N, 81.76 °W | Updated 14 minutes ago

Overcast
Overcast
76 °F
Feels Like 76 °F
N
5
Wind Variable Wind from NE

Today
High -- | Low -- °F
--% Chance of Precip.
Yesterday
High -- | Low -- °F
Precip. -- in
6:50 AM 6:28 PM
Waxing Gibbous, 88% visible
Pressure 30.24 in
Visibility 10.0 miles
Clouds Few 4100 ft
Mostly Cloudy 4900 ft
Overcast 6000 ft
Dew Point 70 °F
Humidity 82%
Rainfall 0.00 in
Snow Depth Not available.
UV 0 out of 12
Pollen 10.00 out of 12
Air Quality Not available.
Flu Activity Not available.
METAR KRSW 012353Z 04004KT 10SM FEW041 BKN049 OVC060 24/21 A3025 RMK AO2 SLP240 60000 T02440211 10294 20244 53010

More Conditions Fewer Conditions

Pressure 30.24 in
Visibility 10.0 miles
Clouds Few 4100 ft
Mostly Cloudy 4900 ft
Overcast 6000 ft
Dew Point 70 °F
Humidity 82%
Rainfall 0.00 in
Snow Depth Not available.
UV 0 out of 12
Pollen 10.00 out of 12
Air Quality Not available.
Flu Activity Not available.
METAR KRSW 012353Z 04004KT 10SM FEW041 BKN049 OVC060 24/21 A3025 RMK AO2 SLP240 60000 T02440211 10294 20244 53010

More Conditions Fewer Conditions

10-Day Weather Forecast

Almanac

Astronomy

Mar. 01, 2015 Rise Set
Actual Time
Civil Twilight
Nautical Twilight
Astronomical Twilight
Moon
Length of Visible Light
Length of Day
Tomorrow will be .
, % of the Moon is Illuminated

Today's Extremes

State Highs State Lows

Community

WunderPhotos

Upload Photos

1,801,634 photos uploaded!

WunderBlogs® & News

Nearby

Air Quality

  Air Quality AQ Index Pollutant
Not available.

Snow Depth

Station Depth Elevation

Earthquake Activity

City Distance Mag. Time & Date
Minimum magnitude displayed is 2.5.

Coastal Water Temperatures

Place Temperature

Nearby Weather Stations